sensor_id;sensor_type;location;lat;lon;timestamp;P1;durP1;ratioP1;P2;durP2;ratioP2
23720;SDS011;42950;52.134;5.578;2023-03-13T00:01:10;27.50;;;5.60;;
23720;SDS011;42950;52.134;5.578;2023-03-13T00:03:39;30.33;;;5.82;;
23720;SDS011;42950;52.134;5.578;2023-03-13T00:06:05;24.23;;;5.78;;
23720;SDS011;42950;52.134;5.578;2023-03-13T00:08:31;26.63;;;5.68;;
23720;SDS011;42950;52.134;5.578;2023-03-13T00:10:56;28.45;;;5.97;;
23720;SDS011;42950;52.134;5.578;2023-03-13T00:13:22;24.67;;;5.30;;
23720;SDS011;42950;52.134;5.578;2023-03-13T00:15:47;27.27;;;5.93;;
23720;SDS011;42950;52.134;5.578;2023-03-13T00:18:13;34.97;;;6.43;;
23720;SDS011;42950;52.134;5.578;2023-03-13T00:20:39;31.20;;;5.97;;
23720;SDS011;42950;52.134;5.578;2023-03-13T00:23:04;30.05;;;5.65;;
23720;SDS011;42950;52.134;5.578;2023-03-13T00:25:30;28.95;;;5.45;;
23720;SDS011;42950;52.134;5.578;2023-03-13T00:27:55;25.52;;;6.07;;
23720;SDS011;42950;52.134;5.578;2023-03-13T00:30:21;26.70;;;5.35;;
23720;SDS011;42950;52.134;5.578;2023-03-13T00:32:46;26.33;;;6.05;;
23720;SDS011;42950;52.134;5.578;2023-03-13T00:35:12;29.23;;;5.82;;
23720;SDS011;42950;52.134;5.578;2023-03-13T00:37:39;21.75;;;5.25;;
23720;SDS011;42950;52.134;5.578;2023-03-13T00:40:05;25.85;;;6.05;;
23720;SDS011;42950;52.134;5.578;2023-03-13T00:42:32;26.40;;;5.63;;
23720;SDS011;42950;52.134;5.578;2023-03-13T00:44:57;30.52;;;5.53;;
23720;SDS011;42950;52.134;5.578;2023-03-13T00:47:23;27.27;;;5.43;;
23720;SDS011;42950;52.134;5.578;2023-03-13T00:49:49;29.70;;;4.93;;
23720;SDS011;42950;52.134;5.578;2023-03-13T00:52:14;24.63;;;6.07;;
23720;SDS011;42950;52.134;5.578;2023-03-13T00:54:40;29.55;;;6.03;;
23720;SDS011;42950;52.134;5.578;2023-03-13T00:57:05;25.00;;;5.45;;
23720;SDS011;42950;52.134;5.578;2023-03-13T00:59:32;24.45;;;5.88;;
23720;SDS011;42950;52.134;5.578;2023-03-13T01:01:57;27.10;;;5.15;;
23720;SDS011;42950;52.134;5.578;2023-03-13T01:04:23;30.98;;;5.75;;
23720;SDS011;42950;52.134;5.578;2023-03-13T01:06:48;25.42;;;5.68;;
23720;SDS011;42950;52.134;5.578;2023-03-13T01:09:14;30.85;;;5.65;;
23720;SDS011;42950;52.134;5.578;2023-03-13T01:11:41;24.25;;;5.70;;
23720;SDS011;42950;52.134;5.578;2023-03-13T01:14:09;27.00;;;6.28;;
23720;SDS011;42950;52.134;5.578;2023-03-13T01:16:40;22.88;;;6.00;;
23720;SDS011;42950;52.134;5.578;2023-03-13T01:19:10;29.98;;;5.82;;
23720;SDS011;42950;52.134;5.578;2023-03-13T01:21:37;21.17;;;5.80;;
23720;SDS011;42950;52.134;5.578;2023-03-13T01:24:03;26.10;;;5.95;;
23720;SDS011;42950;52.134;5.578;2023-03-13T01:26:29;22.73;;;5.13;;
23720;SDS011;42950;52.134;5.578;2023-03-13T01:28:55;21.63;;;5.13;;
23720;SDS011;42950;52.134;5.578;2023-03-13T01:31:22;22.20;;;4.97;;
23720;SDS011;42950;52.134;5.578;2023-03-13T01:33:58;19.92;;;5.10;;
23720;SDS011;42950;52.134;5.578;2023-03-13T01:36:26;19.58;;;5.20;;
23720;SDS011;42950;52.134;5.578;2023-03-13T01:38:53;22.83;;;5.35;;
23720;SDS011;42950;52.134;5.578;2023-03-13T01:41:21;21.48;;;5.55;;
23720;SDS011;42950;52.134;5.578;2023-03-13T01:43:48;20.20;;;4.78;;
23720;SDS011;42950;52.134;5.578;2023-03-13T01:46:15;19.60;;;5.22;;
23720;SDS011;42950;52.134;5.578;2023-03-13T01:51:34;15.55;;;4.57;;
23720;SDS011;42950;52.134;5.578;2023-03-13T01:59:10;15.65;;;5.28;;
23720;SDS011;42950;52.134;5.578;2023-03-13T02:01:39;16.17;;;5.15;;
23720;SDS011;42950;52.134;5.578;2023-03-13T02:04:06;12.38;;;4.63;;
23720;SDS011;42950;52.134;5.578;2023-03-13T02:06:32;13.52;;;4.97;;
23720;SDS011;42950;52.134;5.578;2023-03-13T02:09:04;12.82;;;5.10;;
23720;SDS011;42950;52.134;5.578;2023-03-13T02:11:51;15.15;;;4.20;;
23720;SDS011;42950;52.134;5.578;2023-03-13T02:14:32;8.35;;;4.45;;
23720;SDS011;42950;52.134;5.578;2023-03-13T02:17:00;14.43;;;4.40;;
23720;SDS011;42950;52.134;5.578;2023-03-13T02:25:17;14.60;;;5.50;;
23720;SDS011;42950;52.134;5.578;2023-03-13T02:27:47;8.35;;;5.18;;
23720;SDS011;42950;52.134;5.578;2023-03-13T02:30:32;17.95;;;5.65;;
23720;SDS011;42950;52.134;5.578;2023-03-13T02:32:58;12.27;;;5.60;;
23720;SDS011;42950;52.134;5.578;2023-03-13T02:35:25;14.55;;;5.75;;
23720;SDS011;42950;52.134;5.578;2023-03-13T02:37:56;12.35;;;5.50;;
23720;SDS011;42950;52.134;5.578;2023-03-13T02:40:29;11.80;;;5.50;;
23720;SDS011;42950;52.134;5.578;2023-03-13T02:43:00;12.07;;;5.82;;
23720;SDS011;42950;52.134;5.578;2023-03-13T02:45:30;17.15;;;6.20;;
23720;SDS011;42950;52.134;5.578;2023-03-13T02:47:55;14.77;;;6.07;;
23720;SDS011;42950;52.134;5.578;2023-03-13T02:50:21;10.65;;;5.82;;
23720;SDS011;42950;52.134;5.578;2023-03-13T02:52:49;13.55;;;6.60;;
23720;SDS011;42950;52.134;5.578;2023-03-13T02:55:21;17.27;;;6.93;;
23720;SDS011;42950;52.134;5.578;2023-03-13T02:57:53;14.55;;;7.07;;
23720;SDS011;42950;52.134;5.578;2023-03-13T03:00:19;13.65;;;7.25;;
23720;SDS011;42950;52.134;5.578;2023-03-13T03:02:45;15.75;;;6.97;;
23720;SDS011;42950;52.134;5.578;2023-03-13T03:05:11;17.88;;;8.00;;
23720;SDS011;42950;52.134;5.578;2023-03-13T03:07:37;13.85;;;8.30;;
23720;SDS011;42950;52.134;5.578;2023-03-13T03:10:03;15.23;;;8.85;;
23720;SDS011;42950;52.134;5.578;2023-03-13T03:12:29;13.57;;;9.70;;
23720;SDS011;42950;52.134;5.578;2023-03-13T03:14:55;14.43;;;8.77;;
23720;SDS011;42950;52.134;5.578;2023-03-13T03:17:21;15.85;;;10.77;;
23720;SDS011;42950;52.134;5.578;2023-03-13T03:19:46;19.63;;;10.57;;
23720;SDS011;42950;52.134;5.578;2023-03-13T03:22:12;18.70;;;11.05;;
23720;SDS011;42950;52.134;5.578;2023-03-13T03:24:37;14.13;;;10.75;;
23720;SDS011;42950;52.134;5.578;2023-03-13T03:27:03;17.95;;;10.98;;
23720;SDS011;42950;52.134;5.578;2023-03-13T03:29:28;19.05;;;11.90;;
23720;SDS011;42950;52.134;5.578;2023-03-13T03:31:54;16.65;;;11.88;;
23720;SDS011;42950;52.134;5.578;2023-03-13T03:34:20;18.77;;;12.45;;
23720;SDS011;42950;52.134;5.578;2023-03-13T03:36:46;21.38;;;12.20;;
23720;SDS011;42950;52.134;5.578;2023-03-13T03:39:11;21.33;;;12.55;;
23720;SDS011;42950;52.134;5.578;2023-03-13T03:41:37;18.45;;;11.40;;
23720;SDS011;42950;52.134;5.578;2023-03-13T03:44:03;19.50;;;12.75;;
23720;SDS011;42950;52.134;5.578;2023-03-13T03:46:29;18.90;;;12.25;;
23720;SDS011;42950;52.134;5.578;2023-03-13T03:48:55;18.13;;;12.32;;
23720;SDS011;42950;52.134;5.578;2023-03-13T03:51:21;21.13;;;12.63;;
23720;SDS011;42950;52.134;5.578;2023-03-13T03:53:46;18.55;;;12.55;;
23720;SDS011;42950;52.134;5.578;2023-03-13T03:56:12;15.77;;;12.20;;
23720;SDS011;42950;52.134;5.578;2023-03-13T03:58:38;18.75;;;13.25;;
23720;SDS011;42950;52.134;5.578;2023-03-13T04:01:03;16.70;;;12.85;;
23720;SDS011;42950;52.134;5.578;2023-03-13T04:03:29;19.83;;;12.45;;
23720;SDS011;42950;52.134;5.578;2023-03-13T04:05:55;17.08;;;11.18;;
23720;SDS011;42950;52.134;5.578;2023-03-13T04:08:21;20.10;;;11.40;;
23720;SDS011;42950;52.134;5.578;2023-03-13T04:10:47;16.65;;;11.75;;
23720;SDS011;42950;52.134;5.578;2023-03-13T04:13:13;16.80;;;11.95;;
23720;SDS011;42950;52.134;5.578;2023-03-13T04:15:38;14.65;;;12.25;;
23720;SDS011;42950;52.134;5.578;2023-03-13T04:18:05;18.60;;;12.00;;
23720;SDS011;42950;52.134;5.578;2023-03-13T04:20:30;17.27;;;11.90;;
23720;SDS011;42950;52.134;5.578;2023-03-13T04:22:56;19.85;;;11.43;;
23720;SDS011;42950;52.134;5.578;2023-03-13T04:25:22;12.50;;;10.80;;
23720;SDS011;42950;52.134;5.578;2023-03-13T04:27:47;16.85;;;11.57;;
23720;SDS011;42950;52.134;5.578;2023-03-13T04:30:13;14.23;;;10.73;;
23720;SDS011;42950;52.134;5.578;2023-03-13T04:32:39;14.98;;;10.10;;
23720;SDS011;42950;52.134;5.578;2023-03-13T04:35:04;14.75;;;10.80;;
23720;SDS011;42950;52.134;5.578;2023-03-13T04:37:30;13.80;;;10.45;;
23720;SDS011;42950;52.134;5.578;2023-03-13T04:39:56;14.85;;;10.40;;
23720;SDS011;42950;52.134;5.578;2023-03-13T04:42:21;18.58;;;10.00;;
23720;SDS011;42950;52.134;5.578;2023-03-13T04:44:47;16.45;;;9.75;;
23720;SDS011;42950;52.134;5.578;2023-03-13T04:47:12;14.35;;;9.90;;
23720;SDS011;42950;52.134;5.578;2023-03-13T04:49:38;14.40;;;9.85;;
23720;SDS011;42950;52.134;5.578;2023-03-13T04:52:04;13.18;;;9.63;;
23720;SDS011;42950;52.134;5.578;2023-03-13T04:54:29;13.23;;;9.65;;
23720;SDS011;42950;52.134;5.578;2023-03-13T04:56:55;17.02;;;9.85;;
23720;SDS011;42950;52.134;5.578;2023-03-13T04:59:21;10.93;;;8.70;;
23720;SDS011;42950;52.134;5.578;2023-03-13T05:01:46;13.43;;;8.75;;
23720;SDS011;42950;52.134;5.578;2023-03-13T05:04:12;10.27;;;8.27;;
23720;SDS011;42950;52.134;5.578;2023-03-13T05:06:37;12.57;;;8.18;;
23720;SDS011;42950;52.134;5.578;2023-03-13T05:09:03;11.65;;;7.90;;
23720;SDS011;42950;52.134;5.578;2023-03-13T05:11:29;11.93;;;8.18;;
23720;SDS011;42950;52.134;5.578;2023-03-13T05:13:54;10.23;;;7.47;;
23720;SDS011;42950;52.134;5.578;2023-03-13T05:16:20;11.60;;;7.28;;
23720;SDS011;42950;52.134;5.578;2023-03-13T05:18:46;13.60;;;6.68;;
23720;SDS011;42950;52.134;5.578;2023-03-13T05:21:11;11.88;;;5.43;;
23720;SDS011;42950;52.134;5.578;2023-03-13T05:23:37;11.65;;;6.03;;
23720;SDS011;42950;52.134;5.578;2023-03-13T05:26:02;17.38;;;5.97;;
23720;SDS011;42950;52.134;5.578;2023-03-13T05:28:28;8.52;;;5.10;;
23720;SDS011;42950;52.134;5.578;2023-03-13T05:30:53;8.40;;;5.07;;
23720;SDS011;42950;52.134;5.578;2023-03-13T05:33:19;9.23;;;5.10;;
23720;SDS011;42950;52.134;5.578;2023-03-13T05:35:45;10.82;;;4.65;;
23720;SDS011;42950;52.134;5.578;2023-03-13T05:38:11;8.30;;;4.50;;
23720;SDS011;42950;52.134;5.578;2023-03-13T05:40:37;10.00;;;4.70;;
23720;SDS011;42950;52.134;5.578;2023-03-13T05:43:03;10.45;;;4.88;;
23720;SDS011;42950;52.134;5.578;2023-03-13T05:45:28;11.95;;;4.63;;
23720;SDS011;42950;52.134;5.578;2023-03-13T05:47:54;10.85;;;4.00;;
23720;SDS011;42950;52.134;5.578;2023-03-13T05:50:20;6.65;;;3.83;;
23720;SDS011;42950;52.134;5.578;2023-03-13T05:52:46;13.82;;;3.88;;
23720;SDS011;42950;52.134;5.578;2023-03-13T05:55:11;7.85;;;3.55;;
23720;SDS011;42950;52.134;5.578;2023-03-13T05:57:37;8.45;;;3.40;;
23720;SDS011;42950;52.134;5.578;2023-03-13T06:00:03;6.60;;;3.60;;
23720;SDS011;42950;52.134;5.578;2023-03-13T06:02:30;7.60;;;3.42;;
23720;SDS011;42950;52.134;5.578;2023-03-13T06:04:55;9.55;;;3.88;;
23720;SDS011;42950;52.134;5.578;2023-03-13T06:07:21;6.47;;;3.35;;
23720;SDS011;42950;52.134;5.578;2023-03-13T06:09:46;12.68;;;3.40;;
23720;SDS011;42950;52.134;5.578;2023-03-13T06:12:12;11.85;;;3.83;;
23720;SDS011;42950;52.134;5.578;2023-03-13T06:14:37;9.20;;;3.33;;
23720;SDS011;42950;52.134;5.578;2023-03-13T06:17:03;9.07;;;3.65;;
23720;SDS011;42950;52.134;5.578;2023-03-13T06:19:29;8.50;;;3.40;;
23720;SDS011;42950;52.134;5.578;2023-03-13T06:21:56;11.52;;;4.00;;
23720;SDS011;42950;52.134;5.578;2023-03-13T06:24:21;9.82;;;3.50;;
23720;SDS011;42950;52.134;5.578;2023-03-13T06:26:47;11.75;;;3.80;;
23720;SDS011;42950;52.134;5.578;2023-03-13T06:29:14;12.60;;;3.83;;
23720;SDS011;42950;52.134;5.578;2023-03-13T06:31:39;11.07;;;3.35;;
23720;SDS011;42950;52.134;5.578;2023-03-13T06:34:05;11.40;;;3.95;;
23720;SDS011;42950;52.134;5.578;2023-03-13T06:36:30;7.25;;;3.20;;
23720;SDS011;42950;52.134;5.578;2023-03-13T06:38:56;10.40;;;3.40;;
23720;SDS011;42950;52.134;5.578;2023-03-13T06:41:22;6.88;;;3.75;;
23720;SDS011;42950;52.134;5.578;2023-03-13T06:43:48;9.45;;;3.58;;
23720;SDS011;42950;52.134;5.578;2023-03-13T06:46:18;9.60;;;3.20;;
23720;SDS011;42950;52.134;5.578;2023-03-13T06:48:46;9.80;;;3.75;;
23720;SDS011;42950;52.134;5.578;2023-03-13T06:51:12;10.45;;;3.20;;
23720;SDS011;42950;52.134;5.578;2023-03-13T06:53:39;7.07;;;3.13;;
23720;SDS011;42950;52.134;5.578;2023-03-13T06:56:06;9.40;;;3.10;;
23720;SDS011;42950;52.134;5.578;2023-03-13T06:58:32;11.05;;;3.83;;
23720;SDS011;42950;52.134;5.578;2023-03-13T07:00:58;10.30;;;3.10;;
23720;SDS011;42950;52.134;5.578;2023-03-13T07:03:24;9.23;;;3.50;;
23720;SDS011;42950;52.134;5.578;2023-03-13T07:05:56;8.40;;;3.05;;
23720;SDS011;42950;52.134;5.578;2023-03-13T07:08:22;9.35;;;3.22;;
23720;SDS011;42950;52.134;5.578;2023-03-13T07:10:49;8.63;;;3.05;;
23720;SDS011;42950;52.134;5.578;2023-03-13T07:13:16;9.02;;;3.33;;
23720;SDS011;42950;52.134;5.578;2023-03-13T07:15:43;8.40;;;3.20;;
23720;SDS011;42950;52.134;5.578;2023-03-13T07:18:09;7.68;;;3.17;;
23720;SDS011;42950;52.134;5.578;2023-03-13T07:20:35;7.68;;;3.13;;
23720;SDS011;42950;52.134;5.578;2023-03-13T07:23:00;9.23;;;3.33;;
23720;SDS011;42950;52.134;5.578;2023-03-13T07:25:26;10.10;;;3.40;;
23720;SDS011;42950;52.134;5.578;2023-03-13T07:27:51;6.30;;;2.70;;
23720;SDS011;42950;52.134;5.578;2023-03-13T07:30:17;9.70;;;3.35;;
23720;SDS011;42950;52.134;5.578;2023-03-13T07:32:43;9.50;;;3.33;;
23720;SDS011;42950;52.134;5.578;2023-03-13T07:35:09;11.07;;;3.22;;
23720;SDS011;42950;52.134;5.578;2023-03-13T07:37:34;9.23;;;3.28;;
23720;SDS011;42950;52.134;5.578;2023-03-13T07:40:00;8.18;;;3.17;;
23720;SDS011;42950;52.134;5.578;2023-03-13T07:42:25;11.95;;;3.60;;
23720;SDS011;42950;52.134;5.578;2023-03-13T07:44:51;14.50;;;3.55;;
23720;SDS011;42950;52.134;5.578;2023-03-13T07:47:17;11.57;;;3.78;;
23720;SDS011;42950;52.134;5.578;2023-03-13T07:49:43;12.63;;;4.38;;
23720;SDS011;42950;52.134;5.578;2023-03-13T07:52:10;10.70;;;3.80;;
23720;SDS011;42950;52.134;5.578;2023-03-13T07:54:36;8.73;;;3.67;;
23720;SDS011;42950;52.134;5.578;2023-03-13T07:57:02;10.68;;;3.92;;
23720;SDS011;42950;52.134;5.578;2023-03-13T07:59:27;11.43;;;3.70;;
23720;SDS011;42950;52.134;5.578;2023-03-13T08:01:53;13.02;;;4.00;;
23720;SDS011;42950;52.134;5.578;2023-03-13T08:04:19;8.00;;;3.70;;
23720;SDS011;42950;52.134;5.578;2023-03-13T08:06:44;11.05;;;3.90;;
23720;SDS011;42950;52.134;5.578;2023-03-13T08:09:10;8.85;;;3.70;;
23720;SDS011;42950;52.134;5.578;2023-03-13T08:11:36;7.25;;;3.85;;
23720;SDS011;42950;52.134;5.578;2023-03-13T08:14:05;8.13;;;3.50;;
23720;SDS011;42950;52.134;5.578;2023-03-13T08:16:32;10.75;;;4.18;;
23720;SDS011;42950;52.134;5.578;2023-03-13T08:18:59;11.60;;;3.50;;
23720;SDS011;42950;52.134;5.578;2023-03-13T08:21:29;8.40;;;3.50;;
23720;SDS011;42950;52.134;5.578;2023-03-13T08:24:00;8.57;;;3.55;;
23720;SDS011;42950;52.134;5.578;2023-03-13T08:26:29;8.07;;;3.35;;
23720;SDS011;42950;52.134;5.578;2023-03-13T08:28:59;10.70;;;3.80;;
23720;SDS011;42950;52.134;5.578;2023-03-13T08:31:28;9.38;;;4.22;;
23720;SDS011;42950;52.134;5.578;2023-03-13T08:33:55;8.52;;;3.60;;
23720;SDS011;42950;52.134;5.578;2023-03-13T08:36:25;7.05;;;3.58;;
23720;SDS011;42950;52.134;5.578;2023-03-13T08:38:53;8.35;;;3.72;;
23720;SDS011;42950;52.134;5.578;2023-03-13T08:41:21;10.07;;;3.83;;
23720;SDS011;42950;52.134;5.578;2023-03-13T08:43:50;13.60;;;3.67;;
23720;SDS011;42950;52.134;5.578;2023-03-13T08:46:16;10.43;;;3.50;;
23720;SDS011;42950;52.134;5.578;2023-03-13T08:48:42;10.00;;;3.13;;
23720;SDS011;42950;52.134;5.578;2023-03-13T08:51:11;5.15;;;2.40;;
23720;SDS011;42950;52.134;5.578;2023-03-13T08:53:39;6.15;;;2.72;;
23720;SDS011;42950;52.134;5.578;2023-03-13T08:56:07;6.60;;;2.33;;
23720;SDS011;42950;52.134;5.578;2023-03-13T08:58:34;8.95;;;2.30;;
23720;SDS011;42950;52.134;5.578;2023-03-13T09:01:03;8.80;;;2.42;;
23720;SDS011;42950;52.134;5.578;2023-03-13T09:03:34;7.00;;;2.40;;
23720;SDS011;42950;52.134;5.578;2023-03-13T09:06:00;8.18;;;2.45;;
23720;SDS011;42950;52.134;5.578;2023-03-13T09:08:26;8.50;;;2.60;;
23720;SDS011;42950;52.134;5.578;2023-03-13T09:10:59;8.10;;;2.33;;
23720;SDS011;42950;52.134;5.578;2023-03-13T09:13:28;8.40;;;2.30;;
23720;SDS011;42950;52.134;5.578;2023-03-13T09:16:03;12.68;;;2.80;;
23720;SDS011;42950;52.134;5.578;2023-03-13T09:18:30;5.38;;;1.90;;
23720;SDS011;42950;52.134;5.578;2023-03-13T09:20:57;7.05;;;2.20;;
23720;SDS011;42950;52.134;5.578;2023-03-13T09:23:22;4.30;;;1.73;;
23720;SDS011;42950;52.134;5.578;2023-03-13T09:25:50;8.30;;;2.33;;
23720;SDS011;42950;52.134;5.578;2023-03-13T09:28:17;7.00;;;1.88;;
23720;SDS011;42950;52.134;5.578;2023-03-13T09:30:43;4.15;;;1.80;;
23720;SDS011;42950;52.134;5.578;2023-03-13T09:33:09;6.35;;;1.70;;
23720;SDS011;42950;52.134;5.578;2023-03-13T09:35:36;5.82;;;2.10;;
23720;SDS011;42950;52.134;5.578;2023-03-13T09:38:03;4.88;;;1.70;;
23720;SDS011;42950;52.134;5.578;2023-03-13T09:40:28;7.00;;;1.85;;
23720;SDS011;42950;52.134;5.578;2023-03-13T09:42:55;8.00;;;1.83;;
23720;SDS011;42950;52.134;5.578;2023-03-13T09:45:33;5.85;;;1.90;;
23720;SDS011;42950;52.134;5.578;2023-03-13T09:48:07;7.75;;;1.60;;
23720;SDS011;42950;52.134;5.578;2023-03-13T09:50:43;7.32;;;1.95;;
23720;SDS011;42950;52.134;5.578;2023-03-13T09:53:17;8.30;;;1.83;;
23720;SDS011;42950;52.134;5.578;2023-03-13T09:56:05;7.22;;;1.70;;
23720;SDS011;42950;52.134;5.578;2023-03-13T09:58:42;4.82;;;1.92;;
23720;SDS011;42950;52.134;5.578;2023-03-13T10:01:16;8.20;;;1.63;;
23720;SDS011;42950;52.134;5.578;2023-03-13T10:06:26;7.38;;;2.10;;
23720;SDS011;42950;52.134;5.578;2023-03-13T10:08:57;5.63;;;1.92;;
23720;SDS011;42950;52.134;5.578;2023-03-13T10:14:32;4.50;;;1.30;;
23720;SDS011;42950;52.134;5.578;2023-03-13T10:19:42;4.45;;;1.38;;
23720;SDS011;42950;52.134;5.578;2023-03-13T10:22:18;3.33;;;1.38;;
23720;SDS011;42950;52.134;5.578;2023-03-13T10:24:49;3.53;;;1.10;;
23720;SDS011;42950;52.134;5.578;2023-03-13T10:27:22;4.20;;;1.45;;
23720;SDS011;42950;52.134;5.578;2023-03-13T10:29:47;3.95;;;1.40;;
23720;SDS011;42950;52.134;5.578;2023-03-13T10:32:15;3.40;;;1.00;;
23720;SDS011;42950;52.134;5.578;2023-03-13T10:37:15;4.90;;;1.30;;
23720;SDS011;42950;52.134;5.578;2023-03-13T10:39:45;3.00;;;1.50;;
23720;SDS011;42950;52.134;5.578;2023-03-13T10:42:33;2.67;;;1.27;;
23720;SDS011;42950;52.134;5.578;2023-03-13T10:45:00;4.50;;;1.40;;
23720;SDS011;42950;52.134;5.578;2023-03-13T10:47:31;4.78;;;1.35;;
23720;SDS011;42950;52.134;5.578;2023-03-13T10:49:58;6.40;;;1.73;;
23720;SDS011;42950;52.134;5.578;2023-03-13T10:52:33;5.90;;;1.80;;
23720;SDS011;42950;52.134;5.578;2023-03-13T10:55:09;4.57;;;1.60;;
23720;SDS011;42950;52.134;5.578;2023-03-13T10:57:37;5.15;;;1.50;;
23720;SDS011;42950;52.134;5.578;2023-03-13T11:00:27;5.43;;;1.60;;
23720;SDS011;42950;52.134;5.578;2023-03-13T11:02:59;6.85;;;1.45;;
23720;SDS011;42950;52.134;5.578;2023-03-13T11:08:12;3.42;;;1.10;;
23720;SDS011;42950;52.134;5.578;2023-03-13T11:10:59;6.22;;;1.50;;
23720;SDS011;42950;52.134;5.578;2023-03-13T11:13:33;6.22;;;1.30;;
23720;SDS011;42950;52.134;5.578;2023-03-13T11:16:13;3.70;;;1.17;;
23720;SDS011;42950;52.134;5.578;2023-03-13T11:32:21;3.85;;;1.33;;
23720;SDS011;42950;52.134;5.578;2023-03-13T11:34:53;6.63;;;1.30;;
23720;SDS011;42950;52.134;5.578;2023-03-13T11:37:22;6.82;;;1.40;;
23720;SDS011;42950;52.134;5.578;2023-03-13T11:50:57;4.35;;;1.10;;
23720;SDS011;42950;52.134;5.578;2023-03-13T11:56:21;5.57;;;1.20;;
23720;SDS011;42950;52.134;5.578;2023-03-13T12:01:37;5.20;;;1.70;;
23720;SDS011;42950;52.134;5.578;2023-03-13T12:04:21;2.97;;;1.17;;
23720;SDS011;42950;52.134;5.578;2023-03-13T12:09:27;6.15;;;1.92;;
23720;SDS011;42950;52.134;5.578;2023-03-13T12:14:48;4.78;;;1.25;;
23720;SDS011;42950;52.134;5.578;2023-03-13T12:20:05;3.50;;;1.15;;
23720;SDS011;42950;52.134;5.578;2023-03-13T12:22:52;5.78;;;1.42;;
23720;SDS011;42950;52.134;5.578;2023-03-13T12:25:38;8.80;;;1.90;;
23720;SDS011;42950;52.134;5.578;2023-03-13T12:28:32;14.00;;;1.58;;
23720;SDS011;42950;52.134;5.578;2023-03-13T12:38:55;7.82;;;1.77;;
23720;SDS011;42950;52.134;5.578;2023-03-13T12:41:50;6.43;;;1.80;;
23720;SDS011;42950;52.134;5.578;2023-03-13T12:44:35;11.43;;;1.65;;
23720;SDS011;42950;52.134;5.578;2023-03-13T12:47:06;7.93;;;1.40;;
23720;SDS011;42950;52.134;5.578;2023-03-13T13:00:36;7.35;;;2.13;;
23720;SDS011;42950;52.134;5.578;2023-03-13T13:05:58;7.80;;;2.00;;
23720;SDS011;42950;52.134;5.578;2023-03-13T13:08:29;8.38;;;2.17;;
23720;SDS011;42950;52.134;5.578;2023-03-13T13:13:57;9.02;;;2.10;;
23720;SDS011;42950;52.134;5.578;2023-03-13T13:16:22;7.38;;;1.73;;
23720;SDS011;42950;52.134;5.578;2023-03-13T13:18:50;7.07;;;1.50;;
23720;SDS011;42950;52.134;5.578;2023-03-13T13:23:45;10.27;;;2.10;;
23720;SDS011;42950;52.134;5.578;2023-03-13T13:28:58;6.30;;;1.48;;
23720;SDS011;42950;52.134;5.578;2023-03-13T13:36:56;9.30;;;1.98;;
23720;SDS011;42950;52.134;5.578;2023-03-13T13:39:30;6.85;;;1.70;;
23720;SDS011;42950;52.134;5.578;2023-03-13T13:44:56;6.50;;;1.60;;
23720;SDS011;42950;52.134;5.578;2023-03-13T13:47:25;10.48;;;2.58;;
23720;SDS011;42950;52.134;5.578;2023-03-13T13:49:53;9.57;;;2.08;;
23720;SDS011;42950;52.134;5.578;2023-03-13T13:52:36;11.65;;;1.98;;
23720;SDS011;42950;52.134;5.578;2023-03-13T13:57:58;12.93;;;2.58;;
23720;SDS011;42950;52.134;5.578;2023-03-13T14:00:33;10.65;;;2.60;;
23720;SDS011;42950;52.134;5.578;2023-03-13T14:03:11;12.02;;;2.40;;
23720;SDS011;42950;52.134;5.578;2023-03-13T14:05:43;12.75;;;2.50;;
23720;SDS011;42950;52.134;5.578;2023-03-13T14:10:44;13.80;;;2.75;;
23720;SDS011;42950;52.134;5.578;2023-03-13T14:13:30;12.93;;;2.92;;
23720;SDS011;42950;52.134;5.578;2023-03-13T14:15:55;13.88;;;2.97;;
23720;SDS011;42950;52.134;5.578;2023-03-13T14:18:27;20.30;;;3.08;;
23720;SDS011;42950;52.134;5.578;2023-03-13T14:21:01;12.65;;;2.83;;
23720;SDS011;42950;52.134;5.578;2023-03-13T14:23:29;16.17;;;3.38;;
23720;SDS011;42950;52.134;5.578;2023-03-13T14:26:13;14.75;;;3.20;;
23720;SDS011;42950;52.134;5.578;2023-03-13T14:28:47;17.10;;;3.42;;
23720;SDS011;42950;52.134;5.578;2023-03-13T14:31:32;13.85;;;2.70;;
23720;SDS011;42950;52.134;5.578;2023-03-13T14:34:00;16.40;;;3.28;;
23720;SDS011;42950;52.134;5.578;2023-03-13T14:36:48;16.05;;;2.85;;
23720;SDS011;42950;52.134;5.578;2023-03-13T14:42:00;16.10;;;3.10;;
23720;SDS011;42950;52.134;5.578;2023-03-13T14:44:47;15.07;;;3.15;;
23720;SDS011;42950;52.134;5.578;2023-03-13T14:47:22;16.27;;;2.92;;
23720;SDS011;42950;52.134;5.578;2023-03-13T14:49:54;12.05;;;2.92;;
23720;SDS011;42950;52.134;5.578;2023-03-13T14:52:29;12.25;;;2.70;;
23720;SDS011;42950;52.134;5.578;2023-03-13T14:55:00;18.45;;;3.40;;
23720;SDS011;42950;52.134;5.578;2023-03-13T14:57:57;18.15;;;3.33;;
23720;SDS011;42950;52.134;5.578;2023-03-13T15:05:41;15.15;;;3.42;;
23720;SDS011;42950;52.134;5.578;2023-03-13T15:08:15;14.68;;;3.25;;
23720;SDS011;42950;52.134;5.578;2023-03-13T15:10:42;14.23;;;2.90;;
23720;SDS011;42950;52.134;5.578;2023-03-13T15:15:45;14.32;;;3.55;;
23720;SDS011;42950;52.134;5.578;2023-03-13T15:18:16;14.63;;;3.20;;
23720;SDS011;42950;52.134;5.578;2023-03-13T15:20:48;14.93;;;3.75;;
23720;SDS011;42950;52.134;5.578;2023-03-13T15:23:17;16.45;;;3.00;;
23720;SDS011;42950;52.134;5.578;2023-03-13T15:25:43;13.35;;;3.30;;
23720;SDS011;42950;52.134;5.578;2023-03-13T15:28:13;19.00;;;4.00;;
23720;SDS011;42950;52.134;5.578;2023-03-13T15:30:42;10.65;;;2.75;;
23720;SDS011;42950;52.134;5.578;2023-03-13T15:33:12;14.80;;;3.38;;
23720;SDS011;42950;52.134;5.578;2023-03-13T15:35:42;15.00;;;3.28;;
23720;SDS011;42950;52.134;5.578;2023-03-13T15:38:12;16.15;;;3.05;;
23720;SDS011;42950;52.134;5.578;2023-03-13T15:40:42;15.25;;;3.10;;
23720;SDS011;42950;52.134;5.578;2023-03-13T15:43:09;17.63;;;4.15;;
23720;SDS011;42950;52.134;5.578;2023-03-13T15:45:36;11.63;;;3.13;;
23720;SDS011;42950;52.134;5.578;2023-03-13T15:50:41;18.85;;;3.95;;
23720;SDS011;42950;52.134;5.578;2023-03-13T15:53:21;20.45;;;4.65;;
23720;SDS011;42950;52.134;5.578;2023-03-13T15:55:49;16.05;;;3.47;;
23720;SDS011;42950;52.134;5.578;2023-03-13T15:58:17;15.65;;;3.10;;
23720;SDS011;42950;52.134;5.578;2023-03-13T16:00:43;19.15;;;3.80;;
23720;SDS011;42950;52.134;5.578;2023-03-13T16:03:14;15.88;;;4.43;;
23720;SDS011;42950;52.134;5.578;2023-03-13T16:05:47;20.88;;;4.18;;
23720;SDS011;42950;52.134;5.578;2023-03-13T16:08:14;17.27;;;3.90;;
23720;SDS011;42950;52.134;5.578;2023-03-13T16:10:41;16.40;;;3.58;;
23720;SDS011;42950;52.134;5.578;2023-03-13T16:13:07;19.08;;;3.50;;
23720;SDS011;42950;52.134;5.578;2023-03-13T16:15:33;17.95;;;3.80;;
23720;SDS011;42950;52.134;5.578;2023-03-13T16:17:59;17.65;;;4.07;;
23720;SDS011;42950;52.134;5.578;2023-03-13T16:20:25;14.38;;;3.53;;
23720;SDS011;42950;52.134;5.578;2023-03-13T16:22:52;17.20;;;4.00;;
23720;SDS011;42950;52.134;5.578;2023-03-13T16:25:19;15.90;;;3.38;;
23720;SDS011;42950;52.134;5.578;2023-03-13T16:27:45;18.58;;;3.88;;
23720;SDS011;42950;52.134;5.578;2023-03-13T16:30:18;23.23;;;4.32;;
23720;SDS011;42950;52.134;5.578;2023-03-13T16:32:56;14.55;;;2.90;;
23720;SDS011;42950;52.134;5.578;2023-03-13T16:35:22;16.73;;;3.65;;
23720;SDS011;42950;52.134;5.578;2023-03-13T16:37:50;18.83;;;3.90;;
23720;SDS011;42950;52.134;5.578;2023-03-13T16:40:21;20.55;;;4.00;;
23720;SDS011;42950;52.134;5.578;2023-03-13T16:42:48;17.67;;;3.53;;
23720;SDS011;42950;52.134;5.578;2023-03-13T16:45:14;13.68;;;3.35;;
23720;SDS011;42950;52.134;5.578;2023-03-13T16:47:40;19.23;;;3.80;;
23720;SDS011;42950;52.134;5.578;2023-03-13T16:50:15;18.40;;;3.75;;